createdAt,value
2023-02-05T00:01:32.999Z,57.72
2023-02-05T00:04:00.461Z,58.96
2023-02-05T00:06:27.606Z,60.63
2023-02-05T00:08:57.445Z,67.34
2023-02-05T00:11:25.265Z,63.30
2023-02-05T00:13:52.463Z,49.72
2023-02-05T00:16:21.696Z,48.61
2023-02-05T00:18:48.701Z,51.22
2023-02-05T00:21:16.479Z,54.05
2023-02-05T00:23:45.773Z,55.40
2023-02-05T00:26:14.575Z,58.17
2023-02-05T00:28:42.652Z,59.14
2023-02-05T00:31:15.328Z,60.53
2023-02-05T00:33:42.797Z,61.01
2023-02-05T00:36:12.738Z,66.91
2023-02-05T00:38:41.095Z,65.14
2023-02-05T00:41:08.460Z,50.14
2023-02-05T00:43:38.470Z,48.41
2023-02-05T00:46:06.041Z,51.47
2023-02-05T00:48:33.095Z,54.08
2023-02-05T00:51:00.137Z,55.33
2023-02-05T00:53:27.498Z,57.38
2023-02-05T00:55:55.061Z,58.49
2023-02-05T00:58:22.423Z,59.42
2023-02-05T01:00:50.737Z,60.42
2023-02-05T01:03:18.890Z,61.79
2023-02-05T01:05:46.650Z,68.54
2023-02-05T01:08:14.524Z,64.70
2023-02-05T01:10:50.286Z,52.41
2023-02-05T01:13:18.724Z,49.67
2023-02-05T01:15:46.419Z,51.80
2023-02-05T01:18:13.800Z,54.85
2023-02-05T01:20:42.183Z,57.25
2023-02-05T01:23:09.762Z,60.33
2023-02-05T01:25:37.105Z,60.50
2023-02-05T01:28:04.629Z,61.82
2023-02-05T01:30:31.655Z,66.85
2023-02-05T01:32:58.773Z,65.73
2023-02-05T01:35:25.719Z,51.72
2023-02-05T01:37:52.601Z,48.28
2023-02-05T01:40:20.030Z,51.34
2023-02-05T01:42:47.398Z,53.26
2023-02-05T01:45:23.451Z,55.51
2023-02-05T01:47:53.429Z,57.59
2023-02-05T01:50:28.580Z,58.10
2023-02-05T01:52:58.360Z,59.47
2023-02-05T01:55:25.422Z,60.12
2023-02-05T01:57:53.661Z,60.70
2023-02-05T02:00:31.160Z,66.97
2023-02-05T02:03:00.050Z,62.97
2023-02-05T02:05:26.946Z,50.23
2023-02-05T02:07:53.855Z,48.61
2023-02-05T02:10:21.292Z,51.67
2023-02-05T02:12:50.140Z,53.75
2023-02-05T02:15:25.740Z,56.25
2023-02-05T02:18:17.751Z,58.39
2023-02-05T02:20:46.900Z,59.97
2023-02-05T02:23:13.904Z,60.97
2023-02-05T02:26:00.400Z,61.78
2023-02-05T02:28:46.996Z,67.87
2023-02-05T02:31:22.635Z,59.82
2023-02-05T02:34:05.362Z,47.57
2023-02-05T02:36:37.628Z,48.11
2023-02-05T02:39:14.304Z,50.44
2023-02-05T02:41:54.215Z,53.71
2023-02-05T02:44:33.172Z,55.20
2023-02-05T02:47:06.645Z,56.95
2023-02-05T02:49:39.354Z,58.40
2023-02-05T02:52:11.206Z,60.25
2023-02-05T02:54:41.653Z,60.53
2023-02-05T02:57:10.747Z,60.90
2023-02-05T02:59:41.068Z,66.03
2023-02-05T03:02:11.717Z,63.66
2023-02-05T03:04:48.180Z,51.32
2023-02-05T03:07:25.577Z,49.15
2023-02-05T03:09:57.025Z,51.08
2023-02-05T03:12:24.484Z,54.05
2023-02-05T03:14:52.674Z,56.66
2023-02-05T03:17:27.051Z,58.45
2023-02-05T03:20:03.332Z,59.69
2023-02-05T03:22:30.183Z,60.71
2023-02-05T03:24:57.441Z,61.23
2023-02-05T03:27:24.799Z,66.58
2023-02-05T03:29:52.156Z,65.68
2023-02-05T03:32:45.108Z,52.06
2023-02-05T03:35:34.176Z,48.60
2023-02-05T03:38:37.099Z,51.39
2023-02-05T03:41:10.374Z,53.25
2023-02-05T03:43:52.213Z,55.49
2023-02-05T03:46:25.299Z,56.93
2023-02-05T03:49:10.566Z,58.50
2023-02-05T03:52:04.533Z,59.78
2023-02-05T03:54:56.863Z,59.76
2023-02-05T03:57:45.098Z,60.62
2023-02-05T04:00:14.192Z,69.28
2023-02-05T04:02:42.175Z,64.18
2023-02-05T04:05:10.045Z,49.50
2023-02-05T04:07:38.214Z,47.67
2023-02-05T04:10:05.985Z,49.17
2023-02-05T04:12:33.956Z,51.60
2023-02-05T04:15:01.424Z,53.75
2023-02-05T04:17:28.896Z,54.83
2023-02-05T04:19:55.829Z,56.61
2023-02-05T04:22:22.677Z,57.81
2023-02-05T04:24:49.527Z,59.28
2023-02-05T04:27:16.960Z,59.60
2023-02-05T04:29:43.848Z,60.18
2023-02-05T04:32:10.790Z,61.80
2023-02-05T04:34:37.690Z,68.05
2023-02-05T04:37:05.927Z,66.05
2023-02-05T04:39:33.075Z,50.26
2023-02-05T04:42:01.975Z,47.69
2023-02-05T04:44:29.137Z,50.34
2023-02-05T04:46:56.075Z,52.00
2023-02-05T04:49:23.129Z,53.42
2023-02-05T04:51:50.082Z,55.07
2023-02-05T04:54:17.041Z,57.07
2023-02-05T04:56:43.979Z,58.16
2023-02-05T04:59:10.829Z,59.13
2023-02-05T05:01:37.796Z,59.73
2023-02-05T05:04:04.735Z,60.58
2023-02-05T05:06:31.590Z,61.25
2023-02-05T05:08:58.533Z,67.89
2023-02-05T05:11:26.095Z,65.86
2023-02-05T05:13:53.144Z,52.86
2023-02-05T05:16:20.147Z,49.01
2023-02-05T05:18:47.275Z,50.54
2023-02-05T05:21:14.204Z,52.50
2023-02-05T05:23:41.050Z,54.79
2023-02-05T05:26:11.264Z,57.16
2023-02-05T05:28:38.740Z,57.84
2023-02-05T05:31:11.321Z,59.60
2023-02-05T05:33:38.588Z,60.82
2023-02-05T05:36:07.070Z,66.63
2023-02-05T05:38:34.330Z,62.58
2023-02-05T05:41:20.302Z,51.04
2023-02-05T05:43:47.874Z,49.77
2023-02-05T05:46:24.207Z,52.47
2023-02-05T05:48:56.309Z,54.29
2023-02-05T05:51:24.696Z,56.46
2023-02-05T05:53:52.145Z,58.12
2023-02-05T05:56:19.911Z,59.95
2023-02-05T05:58:49.739Z,60.77
2023-02-05T06:01:20.558Z,67.10
2023-02-05T06:03:47.511Z,66.99
2023-02-05T06:06:17.144Z,52.85
2023-02-05T06:08:45.109Z,49.08
2023-02-05T06:11:12.182Z,51.18
2023-02-05T06:13:39.206Z,53.91
2023-02-05T06:16:06.442Z,55.68
2023-02-05T06:18:33.924Z,56.79
2023-02-05T06:21:02.410Z,57.69
2023-02-05T06:23:32.120Z,59.33
2023-02-05T06:25:58.936Z,61.56
2023-02-05T06:28:25.823Z,60.78
2023-02-05T06:30:53.056Z,68.57
2023-02-05T06:33:20.125Z,68.03
2023-02-05T06:35:47.087Z,52.72
2023-02-05T06:38:14.129Z,49.41
2023-02-05T06:40:40.975Z,51.69
2023-02-05T06:43:08.029Z,53.77
2023-02-05T06:45:35.227Z,56.29
2023-02-05T06:48:02.441Z,57.81
2023-02-05T06:50:29.504Z,58.04
2023-02-05T06:52:56.458Z,59.41
2023-02-05T06:55:23.303Z,61.42
2023-02-05T06:57:50.454Z,67.73
2023-02-05T07:00:17.602Z,63.22
2023-02-05T07:02:44.502Z,49.36
2023-02-05T07:05:11.623Z,48.51
2023-02-05T07:07:38.770Z,50.96
2023-02-05T07:10:06.458Z,54.35
2023-02-05T07:12:33.382Z,56.12
2023-02-05T07:15:00.239Z,59.10
2023-02-05T07:17:27.205Z,59.89
2023-02-05T07:19:54.233Z,60.70
2023-02-05T07:22:21.259Z,67.95
2023-02-05T07:24:48.239Z,62.47
2023-02-05T07:27:15.105Z,49.44
2023-02-05T07:29:42.046Z,48.62
2023-02-05T07:32:09.496Z,52.56
2023-02-05T07:34:36.861Z,55.51
2023-02-05T07:37:03.811Z,57.27
2023-02-05T07:39:30.782Z,59.11
2023-02-05T07:41:57.715Z,60.32
2023-02-05T07:44:31.834Z,60.76
2023-02-05T07:46:58.770Z,67.20
2023-02-05T07:49:25.821Z,60.46
2023-02-05T07:51:53.078Z,47.93
2023-02-05T07:54:20.029Z,48.81
2023-02-05T07:56:46.982Z,51.06
2023-02-05T07:59:14.134Z,52.95
2023-02-05T08:01:41.086Z,55.12
2023-02-05T08:04:07.954Z,56.62
2023-02-05T08:06:35.404Z,58.53
2023-02-05T08:09:02.555Z,58.82
2023-02-05T08:11:31.170Z,59.54
2023-02-05T08:14:00.799Z,60.86
2023-02-05T08:16:27.835Z,66.46
2023-02-05T08:18:54.751Z,64.09
2023-02-05T08:21:22.227Z,49.57
2023-02-05T08:23:49.781Z,45.04
2023-02-05T08:26:17.871Z,46.20
2023-02-05T08:28:44.910Z,47.71
2023-02-05T08:31:15.174Z,48.36
2023-02-05T08:33:42.426Z,46.44
2023-02-05T08:36:10.747Z,43.45
2023-02-05T08:38:37.841Z,41.64
2023-02-05T08:41:14.806Z,41.05
2023-02-05T08:43:44.111Z,41.69
2023-02-05T08:46:12.887Z,42.55
2023-02-05T08:48:40.068Z,43.64
2023-02-05T08:51:10.084Z,45.10
2023-02-05T08:53:37.024Z,46.50
2023-02-05T08:56:05.547Z,48.26
2023-02-05T08:58:33.387Z,49.87
2023-02-05T09:01:06.299Z,50.32
2023-02-05T09:03:33.740Z,51.16
2023-02-05T09:06:02.324Z,51.83
2023-02-05T09:08:31.157Z,51.82
2023-02-05T09:10:58.369Z,50.82
2023-02-05T09:13:25.933Z,46.32
2023-02-05T09:15:52.893Z,40.37
2023-02-05T09:18:20.346Z,34.57
2023-02-05T09:20:49.657Z,31.99
2023-02-05T09:23:18.651Z,29.87
2023-02-05T09:25:45.707Z,27.81
2023-02-05T09:28:14.615Z,26.26
2023-02-05T09:30:46.404Z,26.94
2023-02-05T09:33:14.446Z,28.54
2023-02-05T09:35:42.422Z,29.08
2023-02-05T09:38:12.941Z,29.01
2023-02-05T09:40:51.044Z,27.99
2023-02-05T09:43:29.903Z,28.77
2023-02-05T09:46:12.212Z,29.60
2023-02-05T09:49:11.558Z,30.92
2023-02-05T09:51:44.137Z,32.51
2023-02-05T09:54:32.983Z,34.66
2023-02-05T09:57:15.282Z,35.89
2023-02-05T09:59:46.078Z,37.05
2023-02-05T10:02:51.965Z,37.67
2023-02-05T10:05:24.346Z,38.32
2023-02-05T10:08:23.824Z,39.21
2023-02-05T10:10:53.843Z,38.95
2023-02-05T10:13:20.589Z,37.68
2023-02-05T10:16:16.233Z,35.55
2023-02-05T10:19:06.576Z,33.10
2023-02-05T10:21:48.780Z,34.36
2023-02-05T10:24:39.473Z,35.89
2023-02-05T10:27:35.429Z,36.31
2023-02-05T10:30:23.812Z,36.26
2023-02-05T10:32:58.252Z,37.44
2023-02-05T10:35:44.848Z,38.62
2023-02-05T10:38:21.216Z,40.22
2023-02-05T10:40:51.360Z,41.36
2023-02-05T10:43:34.375Z,42.52
2023-02-05T10:46:02.240Z,44.61
2023-02-05T10:48:44.737Z,45.19
2023-02-05T10:51:28.145Z,46.48
2023-02-05T10:53:55.117Z,48.06
2023-02-05T10:56:22.371Z,46.63
2023-02-05T10:58:52.296Z,47.03
2023-02-05T11:01:21.091Z,47.23
2023-02-05T11:04:01.735Z,46.58
2023-02-05T11:06:32.776Z,46.48
2023-02-05T11:09:00.241Z,46.75
2023-02-05T11:11:28.312Z,46.77
2023-02-05T11:14:00.796Z,46.90
2023-02-05T11:16:44.520Z,46.89
2023-02-05T11:19:27.957Z,47.16
2023-02-05T11:22:01.753Z,46.93
2023-02-05T11:24:34.136Z,47.23
2023-02-05T11:27:16.741Z,47.58
2023-02-05T11:29:43.886Z,47.61
2023-02-05T11:32:37.858Z,47.88
2023-02-05T11:35:22.534Z,47.90
2023-02-05T11:38:14.629Z,47.87
2023-02-05T11:40:41.683Z,47.99
2023-02-05T11:43:19.480Z,48.10
2023-02-05T11:45:51.812Z,48.41
2023-02-05T11:48:43.674Z,48.29
2023-02-05T11:51:15.440Z,48.24
2023-02-05T11:53:54.873Z,48.47
2023-02-05T11:56:25.336Z,49.20
2023-02-05T11:59:00.160Z,49.82
2023-02-05T12:01:32.695Z,49.91
2023-02-05T12:04:11.940Z,50.44
2023-02-05T12:06:43.088Z,50.74
2023-02-05T12:09:19.863Z,50.94
2023-02-05T12:12:04.368Z,51.02
2023-02-05T12:14:36.483Z,51.39
2023-02-05T12:17:33.580Z,51.74
2023-02-05T12:20:14.190Z,52.01
2023-02-05T12:23:08.768Z,51.70
2023-02-05T12:26:15.318Z,52.07
2023-02-05T12:29:04.164Z,52.16
2023-02-05T12:32:09.395Z,52.52
2023-02-05T12:35:06.744Z,53.02
2023-02-05T12:37:56.603Z,53.06
2023-02-05T12:40:32.456Z,53.18
2023-02-05T12:43:35.013Z,53.05
2023-02-05T12:46:10.908Z,53.66
2023-02-05T12:48:43.860Z,53.69
2023-02-05T12:51:22.789Z,53.77
2023-02-05T12:54:22.274Z,53.74
2023-02-05T12:56:51.762Z,53.64
2023-02-05T12:59:44.619Z,54.23
2023-02-05T13:02:39.657Z,53.71
2023-02-05T13:05:09.443Z,53.82
2023-02-05T13:07:45.801Z,53.71
2023-02-05T13:10:32.908Z,54.16
2023-02-05T13:13:05.607Z,54.18
2023-02-05T13:15:40.758Z,54.01
2023-02-05T13:18:14.733Z,53.86
2023-02-05T13:21:26.510Z,53.98
2023-02-05T13:24:22.216Z,54.51
2023-02-05T13:27:08.402Z,54.69
2023-02-05T13:29:51.620Z,54.95
2023-02-05T13:32:23.897Z,54.81
2023-02-05T13:34:55.347Z,54.66
2023-02-05T13:37:31.613Z,54.47
2023-02-05T13:39:58.560Z,54.73
2023-02-05T13:43:18.933Z,54.86
2023-02-05T13:45:59.716Z,54.64
2023-02-05T13:48:53.148Z,54.59
2023-02-05T13:51:43.431Z,54.52
2023-02-05T13:54:28.942Z,54.71
2023-02-05T13:57:33.611Z,54.72
2023-02-05T14:00:01.659Z,55.53
2023-02-05T14:02:46.543Z,55.65
2023-02-05T14:05:14.657Z,55.53
2023-02-05T14:07:50.262Z,55.92
2023-02-05T14:10:29.683Z,56.00
2023-02-05T14:13:23.064Z,55.33
2023-02-05T14:15:54.427Z,56.45
2023-02-05T14:18:40.215Z,56.77
2023-02-05T14:21:32.112Z,56.87
2023-02-05T14:24:02.849Z,57.10
2023-02-05T14:27:01.013Z,57.04
2023-02-05T14:29:45.062Z,57.59
2023-02-05T14:32:28.178Z,57.05
2023-02-05T14:35:24.084Z,57.52
2023-02-05T14:37:52.057Z,57.54
2023-02-05T14:40:36.041Z,57.34
2023-02-05T14:43:25.870Z,57.72
2023-02-05T14:45:53.738Z,57.92
2023-02-05T14:48:29.495Z,57.56
2023-02-05T14:51:26.020Z,58.07
2023-02-05T14:53:58.189Z,57.59
2023-02-05T14:56:36.305Z,58.12
2023-02-05T14:59:30.254Z,58.13
2023-02-05T15:01:59.572Z,58.50
2023-02-05T15:04:29.479Z,58.74
2023-02-05T15:07:01.254Z,58.52
2023-02-05T15:09:51.823Z,59.01
2023-02-05T15:12:37.415Z,58.99
2023-02-05T15:15:43.955Z,59.15
2023-02-05T15:18:20.417Z,58.84
2023-02-05T15:20:51.814Z,58.80
2023-02-05T15:23:26.531Z,58.96
2023-02-05T15:26:05.843Z,59.76
2023-02-05T15:28:39.766Z,60.20
2023-02-05T15:31:17.153Z,60.36
2023-02-05T15:34:03.545Z,60.56
2023-02-05T15:36:35.513Z,61.11
2023-02-05T15:39:14.273Z,60.85
2023-02-05T15:41:45.364Z,61.21
2023-02-05T15:44:28.300Z,61.44
2023-02-05T15:46:58.181Z,61.03
2023-02-05T15:49:52.060Z,61.09
2023-02-05T15:52:30.876Z,60.78
2023-02-05T15:55:11.952Z,60.88
2023-02-05T15:57:39.529Z,61.17
2023-02-05T16:00:09.831Z,61.39
2023-02-05T16:02:40.234Z,61.53
2023-02-05T16:05:23.246Z,61.66
2023-02-05T16:08:02.189Z,61.54
2023-02-05T16:10:35.153Z,61.21
2023-02-05T16:13:05.416Z,61.02
2023-02-05T16:15:53.562Z,60.99
2023-02-05T16:18:32.512Z,60.99
2023-02-05T16:21:04.955Z,61.26
2023-02-05T16:23:43.275Z,61.27
2023-02-05T16:26:20.259Z,61.56
2023-02-05T16:28:58.681Z,61.44
2023-02-05T16:31:28.503Z,61.38
2023-02-05T16:34:01.540Z,61.73
2023-02-05T16:36:32.908Z,61.14
2023-02-05T16:39:03.348Z,61.97
2023-02-05T16:41:38.886Z,61.74
2023-02-05T16:44:07.987Z,61.88
2023-02-05T16:46:36.190Z,67.18
2023-02-05T16:49:27.467Z,67.48
2023-02-05T16:51:56.165Z,51.76
2023-02-05T16:54:33.698Z,48.31
2023-02-05T16:57:22.792Z,49.56
2023-02-05T16:59:54.870Z,51.36
2023-02-05T17:02:29.246Z,52.28
2023-02-05T17:04:58.102Z,53.49
2023-02-05T17:07:26.022Z,54.27
2023-02-05T17:10:09.509Z,55.45
2023-02-05T17:12:45.762Z,55.93
2023-02-05T17:15:16.080Z,56.54
2023-02-05T17:17:51.049Z,57.05
2023-02-05T17:20:18.471Z,57.58
2023-02-05T17:23:00.683Z,58.08
2023-02-05T17:25:29.377Z,58.13
2023-02-05T17:27:57.112Z,58.52
2023-02-05T17:30:24.088Z,58.81
2023-02-05T17:32:51.298Z,59.68
2023-02-05T17:35:22.460Z,59.87
2023-02-05T17:37:49.849Z,60.12
2023-02-05T17:40:18.444Z,60.26
2023-02-05T17:42:46.824Z,60.52
2023-02-05T17:45:20.501Z,60.60
2023-02-05T17:47:48.042Z,60.47
2023-02-05T17:50:16.632Z,60.99
2023-02-05T17:52:44.950Z,61.29
2023-02-05T17:55:19.187Z,61.86
2023-02-05T17:57:46.733Z,62.01
2023-02-05T18:00:32.870Z,67.59
2023-02-05T18:02:59.981Z,66.15
2023-02-05T18:05:27.046Z,51.75
2023-02-05T18:07:56.954Z,47.83
2023-02-05T18:10:26.990Z,49.29
2023-02-05T18:12:56.312Z,51.21
2023-02-05T18:15:25.095Z,52.15
2023-02-05T18:17:53.349Z,53.57
2023-02-05T18:20:21.967Z,54.42
2023-02-05T18:22:50.216Z,55.29
2023-02-05T18:25:18.643Z,56.42
2023-02-05T18:27:45.842Z,57.19
2023-02-05T18:30:13.137Z,57.89
2023-02-05T18:32:39.941Z,58.35
2023-02-05T18:35:09.355Z,58.95
2023-02-05T18:37:37.170Z,59.41
2023-02-05T18:40:04.748Z,59.45
2023-02-05T18:42:31.847Z,59.91
2023-02-05T18:44:58.823Z,60.19
2023-02-05T18:47:25.678Z,60.50
2023-02-05T18:49:52.565Z,60.75
2023-02-05T18:52:19.673Z,61.21
2023-02-05T18:57:46.402Z,68.29
2023-02-05T19:00:13.746Z,53.10
2023-02-05T19:02:42.352Z,48.45
2023-02-05T19:05:11.463Z,49.43
2023-02-05T19:07:39.426Z,50.61
2023-02-05T19:10:07.516Z,51.94
2023-02-05T19:12:35.809Z,53.08
2023-02-05T19:15:03.039Z,54.19
2023-02-05T19:17:30.086Z,55.16
2023-02-05T19:19:57.148Z,56.14
2023-02-05T19:22:24.498Z,57.20
2023-02-05T19:24:51.665Z,57.91
2023-02-05T19:27:19.317Z,59.02
2023-02-05T19:29:46.676Z,59.91
2023-02-05T19:32:13.728Z,60.74
2023-02-05T19:34:43.971Z,67.12
2023-02-05T19:37:12.351Z,70.51
2023-02-05T19:39:39.609Z,59.82
2023-02-05T19:42:07.374Z,48.27
2023-02-05T19:44:34.436Z,47.29
2023-02-05T19:47:02.066Z,49.36
2023-02-05T19:49:29.763Z,51.30
2023-02-05T19:51:59.672Z,53.21
2023-02-05T19:54:27.140Z,54.72
2023-02-05T19:56:54.293Z,56.24
2023-02-05T19:59:21.966Z,57.40
2023-02-05T20:01:50.185Z,58.00
2023-02-05T20:04:29.268Z,59.04
2023-02-05T20:06:58.677Z,60.19
2023-02-05T20:09:27.430Z,66.06
2023-02-05T20:11:55.652Z,70.55
2023-02-05T20:14:23.858Z,60.51
2023-02-05T20:16:52.277Z,50.26
2023-02-05T20:19:20.387Z,49.42
2023-02-05T20:21:49.277Z,51.52
2023-02-05T20:24:17.647Z,53.26
2023-02-05T20:26:48.796Z,55.84
2023-02-05T20:29:37.673Z,57.84
2023-02-05T20:32:06.355Z,59.92
2023-02-05T20:34:36.115Z,66.01
2023-02-05T20:37:06.108Z,69.16
2023-02-05T20:39:35.489Z,60.44
2023-02-05T20:42:03.912Z,49.79
2023-02-05T20:44:34.426Z,48.22
2023-02-05T20:47:01.894Z,49.95
2023-02-05T20:49:29.032Z,51.89
2023-02-05T20:51:56.277Z,54.15
2023-02-05T20:54:23.949Z,56.59
2023-02-05T20:56:52.227Z,59.53
2023-02-05T20:59:19.280Z,60.40
2023-02-05T21:01:46.146Z,61.70
2023-02-05T21:04:13.590Z,69.90
2023-02-05T21:06:41.685Z,71.85
2023-02-05T21:09:10.259Z,60.63
2023-02-05T21:11:38.123Z,49.50
2023-02-05T21:14:07.234Z,48.98
2023-02-05T21:16:35.847Z,51.26
2023-02-05T21:19:04.672Z,53.56
2023-02-05T21:21:35.129Z,55.67
2023-02-05T21:24:05.163Z,58.88
2023-02-05T21:26:40.195Z,66.06
2023-02-05T21:29:16.897Z,69.29
2023-02-05T21:31:50.126Z,57.49
2023-02-05T21:34:21.842Z,48.95
2023-02-05T21:36:49.495Z,51.05
2023-02-05T21:39:17.284Z,53.15
2023-02-05T21:41:45.938Z,54.91
2023-02-05T21:44:13.122Z,56.29
2023-02-05T21:46:40.769Z,57.92
2023-02-05T21:49:08.014Z,58.84
2023-02-05T21:51:35.583Z,59.24
2023-02-05T21:54:05.823Z,60.51
2023-02-05T21:56:35.016Z,68.03
2023-02-05T21:59:02.469Z,70.69
2023-02-05T22:01:35.218Z,58.47
2023-02-05T22:04:05.214Z,53.07
2023-02-05T22:06:36.338Z,48.94
2023-02-05T22:09:06.089Z,44.15
2023-02-05T22:11:34.159Z,39.18
2023-02-05T22:14:04.145Z,38.24
2023-02-05T22:16:33.369Z,41.71
2023-02-05T22:19:01.948Z,44.91
2023-02-05T22:21:34.688Z,47.01
2023-02-05T22:24:03.475Z,49.72
2023-02-05T22:26:37.688Z,51.43
2023-02-05T22:29:06.727Z,52.63
2023-02-05T22:31:35.251Z,54.06
2023-02-05T22:34:02.768Z,55.58
2023-02-05T22:36:32.783Z,57.01
2023-02-05T22:39:01.410Z,68.36
2023-02-05T22:41:31.914Z,64.75
2023-02-05T22:44:00.623Z,55.08
2023-02-05T22:46:30.556Z,47.97
2023-02-05T22:48:59.717Z,43.86
2023-02-05T22:51:32.927Z,41.25
2023-02-05T22:54:00.581Z,39.70
2023-02-05T22:56:29.363Z,35.40
2023-02-05T22:58:57.702Z,36.53
2023-02-05T23:01:32.493Z,40.28
2023-02-05T23:03:59.939Z,43.71
2023-02-05T23:06:30.325Z,45.40
2023-02-05T23:09:10.316Z,47.75
2023-02-05T23:11:37.766Z,48.90
2023-02-05T23:14:06.774Z,52.34
2023-02-05T23:16:36.860Z,53.79
2023-02-05T23:19:08.139Z,55.24
2023-02-05T23:21:36.631Z,67.29
2023-02-05T23:24:04.500Z,61.18
2023-02-05T23:26:34.879Z,50.89
2023-02-05T23:29:01.889Z,45.82
2023-02-05T23:31:29.740Z,42.14
2023-02-05T23:33:56.915Z,39.54
2023-02-05T23:36:23.973Z,35.32
2023-02-05T23:38:51.218Z,36.69
2023-02-05T23:41:35.947Z,40.38
2023-02-05T23:44:15.309Z,43.33
2023-02-05T23:46:45.141Z,46.19
2023-02-05T23:49:13.304Z,48.55
2023-02-05T23:51:41.077Z,49.89
2023-02-05T23:54:10.693Z,51.50
2023-02-05T23:56:38.061Z,52.63
2023-02-05T23:59:06.628Z,54.00
